< < Back
Terminal Aerodrome Forecast


Current Version              Previous Versions:   1  2  3  4  5  6  7  8  9  

Terminal Aerodrome Forecast

638
FTUS42 KILM 220900 AAA
TAFFLO
TAF AMD
KFLO 220935Z 2210/2306 02008KT 4SM -RA BR BKN005 OVC012
     FM221500 02007KT P6SM OVC008
     FM222300 36004KT 2SM BR OVC004=

Latest METAR

350
SAUS70 KWBC 230300 RRE
MTRFLO
METAR KFLO 230253Z 06007KT 2SM BR OVC003 06/04 A3004 RMK AO2 SLP172
60001 T00560044 53002


USA.gov is the U.S. government's official web portal to all federal, state and local government web resources and services.